TimeEST,TemperatureF,Dew PointF,Humidity,Sea Level PressureIn,VisibilityMPH,Wind Direction,Wind SpeedMPH,Gust SpeedMPH,PrecipitationIn,Events,Conditions,WindDirDegrees,DateUTC
12:53 AM,26.1,17.1,69,30.12,10.0,Variable,3.5,-,N/A,,Mostly Cloudy,0,2013-03-04 05:53:00
1:06 AM,26.6,15.8,64,30.09,10.0,Variable,4.6,-,N/A,,Scattered Clouds,0,2013-03-04 06:06:00
1:20 AM,26.6,15.8,64,30.09,10.0,Calm,Calm,-,N/A,,Mostly Cloudy,0,2013-03-04 06:20:00
2:25 AM,24.8,15.8,69,30.10,10.0,ENE,6.9,-,N/A,,Overcast,60,2013-03-04 07:25:00
2:53 AM,23.0,15.1,72,30.14,10.0,Calm,Calm,-,N/A,,Scattered Clouds,0,2013-03-04 07:53:00
4:53 AM,19.0,15.1,85,30.15,10.0,Calm,Calm,-,N/A,,Clear,0,2013-03-04 09:53:00
5:53 AM,17.1,12.9,84,30.17,10.0,Calm,Calm,-,N/A,,Clear,0,2013-03-04 10:53:00
7:53 AM,19.0,15.1,85,30.17,10.0,Calm,Calm,-,N/A,,Clear,0,2013-03-04 12:53:00
8:53 AM,23.0,17.1,78,30.17,10.0,Calm,Calm,-,N/A,,Clear,0,2013-03-04 13:53:00
9:53 AM,26.1,17.1,69,30.16,10.0,ESE,4.6,-,N/A,,Clear,110,2013-03-04 14:53:00
10:53 AM,28.9,17.1,61,30.16,10.0,ENE,9.2,-,N/A,,Clear,70,2013-03-04 15:53:00
11:53 AM,30.9,17.1,57,30.14,10.0,East,9.2,-,N/A,,Clear,90,2013-03-04 16:53:00
12:53 PM,32.0,17.1,54,30.12,10.0,ENE,8.1,-,N/A,,Clear,60,2013-03-04 17:53:00
1:53 PM,33.1,18.0,54,30.10,10.0,ENE,9.2,-,N/A,,Clear,70,2013-03-04 18:53:00
2:53 PM,35.1,17.1,48,30.09,10.0,East,8.1,-,N/A,,Clear,100,2013-03-04 19:53:00
3:53 PM,36.0,16.0,44,30.08,10.0,SE,9.2,-,N/A,,Clear,140,2013-03-04 20:53:00
4:53 PM,36.0,16.0,44,30.07,10.0,ESE,6.9,-,N/A,,Partly Cloudy,110,2013-03-04 21:53:00
5:53 PM,34.0,17.1,50,30.06,10.0,ESE,6.9,-,N/A,,Overcast,110,2013-03-04 22:53:00
6:53 PM,33.1,16.0,50,30.06,10.0,East,4.6,-,N/A,,Overcast,80,2013-03-04 23:53:00
7:53 PM,32.0,16.0,52,30.08,10.0,East,5.8,-,N/A,,Overcast,80,2013-03-05 00:53:00
8:53 PM,32.0,16.0,52,30.08,10.0,East,6.9,-,N/A,,Overcast,90,2013-03-05 01:53:00
9:53 PM,32.0,17.1,54,30.09,10.0,East,6.9,-,N/A,,Overcast,100,2013-03-05 02:53:00
10:53 PM,32.0,17.1,54,30.09,10.0,East,6.9,-,N/A,,Overcast,100,2013-03-05 03:53:00
11:53 PM,32.0,18.0,56,30.09,10.0,East,4.6,-,N/A,,Overcast,100,2013-03-05 04:53:00